sensor_id;sensor_type;location;lat;lon;timestamp;pressure;altitude;pressure_sealevel;temperature;humidity
71903;BME280;59778;50.310;18.780;2023-08-06T00:08:46;97434.63;;;18.47;100.00
71903;BME280;59778;50.310;18.780;2023-08-06T00:24:07;97364.00;;;18.37;100.00
71903;BME280;59778;50.310;18.780;2023-08-06T00:39:29;97272.25;;;18.28;100.00
71903;BME280;59778;50.310;18.780;2023-08-06T00:54:50;97246.41;;;18.29;100.00
71903;BME280;59778;50.310;18.780;2023-08-06T01:41:12;97175.53;;;18.65;100.00
71903;BME280;59778;50.310;18.780;2023-08-06T01:56:36;97155.69;;;18.73;100.00
71903;BME280;59778;50.310;18.780;2023-08-06T02:11:57;97158.63;;;18.81;100.00
71903;BME280;59778;50.310;18.780;2023-08-06T02:27:18;97162.44;;;18.91;100.00
71903;BME280;59778;50.310;18.780;2023-08-06T02:42:39;97125.03;;;18.84;100.00
71903;BME280;59778;50.310;18.780;2023-08-06T02:58:01;97121.75;;;18.88;100.00
71903;BME280;59778;50.310;18.780;2023-08-06T03:13:23;97095.78;;;18.99;100.00
71903;BME280;59778;50.310;18.780;2023-08-06T03:28:44;97109.22;;;19.00;100.00
71903;BME280;59778;50.310;18.780;2023-08-06T03:44:05;97106.38;;;18.81;100.00
71903;BME280;59778;50.310;18.780;2023-08-06T03:59:27;97088.53;;;18.79;100.00
71903;BME280;59778;50.310;18.780;2023-08-06T04:14:50;97078.66;;;18.73;100.00
71903;BME280;59778;50.310;18.780;2023-08-06T04:30:11;97084.03;;;18.59;100.00
71903;BME280;59778;50.310;18.780;2023-08-06T04:45:35;97043.63;;;17.77;100.00
71903;BME280;59778;50.310;18.780;2023-08-06T05:00:56;97035.19;;;17.63;100.00
71903;BME280;59778;50.310;18.780;2023-08-06T05:16:17;97041.13;;;17.16;100.00
71903;BME280;59778;50.310;18.780;2023-08-06T05:31:38;97035.47;;;16.77;100.00
71903;BME280;59778;50.310;18.780;2023-08-06T05:47:02;97019.03;;;16.47;100.00
71903;BME280;59778;50.310;18.780;2023-08-06T06:02:23;97012.75;;;16.26;100.00
71903;BME280;59778;50.310;18.780;2023-08-06T06:17:44;96979.31;;;15.94;100.00
71903;BME280;59778;50.310;18.780;2023-08-06T06:33:09;96958.53;;;16.03;100.00
71903;BME280;59778;50.310;18.780;2023-08-06T06:48:32;96986.44;;;15.85;100.00
71903;BME280;59778;50.310;18.780;2023-08-06T07:03:53;96943.44;;;15.55;100.00
71903;BME280;59778;50.310;18.780;2023-08-06T07:19:14;96943.94;;;15.47;100.00
71903;BME280;59778;50.310;18.780;2023-08-06T07:34:36;96932.09;;;15.11;100.00
71903;BME280;59778;50.310;18.780;2023-08-06T07:49:57;96949.84;;;15.03;100.00
71903;BME280;59778;50.310;18.780;2023-08-06T08:05:18;96961.81;;;14.87;100.00
71903;BME280;59778;50.310;18.780;2023-08-06T08:20:39;96907.66;;;14.79;100.00
71903;BME280;59778;50.310;18.780;2023-08-06T08:36:01;96964.81;;;14.91;100.00
71903;BME280;59778;50.310;18.780;2023-08-06T08:51:23;96940.66;;;15.40;100.00
71903;BME280;59778;50.310;18.780;2023-08-06T09:06:47;96966.88;;;15.21;100.00
71903;BME280;59778;50.310;18.780;2023-08-06T09:22:12;96944.13;;;15.15;100.00
71903;BME280;59778;50.310;18.780;2023-08-06T09:37:37;96923.03;;;14.95;100.00
71903;BME280;59778;50.310;18.780;2023-08-06T09:53:00;96947.94;;;15.14;100.00
71903;BME280;59778;50.310;18.780;2023-08-06T10:08:21;96955.59;;;15.07;100.00
71903;BME280;59778;50.310;18.780;2023-08-06T10:23:43;96953.72;;;15.18;100.00
71903;BME280;59778;50.310;18.780;2023-08-06T10:39:05;96987.53;;;15.01;100.00
71903;BME280;59778;50.310;18.780;2023-08-06T10:54:29;97011.38;;;15.11;100.00
71903;BME280;59778;50.310;18.780;2023-08-06T11:09:51;96984.81;;;14.96;100.00
71903;BME280;59778;50.310;18.780;2023-08-06T11:25:14;97037.38;;;15.08;100.00
71903;BME280;59778;50.310;18.780;2023-08-06T11:40:35;97032.16;;;15.07;100.00
71903;BME280;59778;50.310;18.780;2023-08-06T11:55:57;97027.53;;;15.18;100.00
71903;BME280;59778;50.310;18.780;2023-08-06T12:11:21;97051.25;;;15.54;100.00
71903;BME280;59778;50.310;18.780;2023-08-06T12:26:45;97066.72;;;15.33;100.00
71903;BME280;59778;50.310;18.780;2023-08-06T12:42:06;97087.59;;;15.44;100.00
71903;BME280;59778;50.310;18.780;2023-08-06T12:57:27;97096.06;;;15.48;100.00
71903;BME280;59778;50.310;18.780;2023-08-06T13:12:50;97080.69;;;15.32;100.00
71903;BME280;59778;50.310;18.780;2023-08-06T13:28:11;97090.97;;;15.67;100.00
71903;BME280;59778;50.310;18.780;2023-08-06T13:43:34;97101.38;;;15.70;100.00
71903;BME280;59778;50.310;18.780;2023-08-06T13:58:56;97120.59;;;15.90;100.00
71903;BME280;59778;50.310;18.780;2023-08-06T14:14:17;97112.44;;;16.10;100.00
71903;BME280;59778;50.310;18.780;2023-08-06T14:29:38;97147.66;;;15.81;100.00
71903;BME280;59778;50.310;18.780;2023-08-06T14:44:59;97176.13;;;15.75;100.00
71903;BME280;59778;50.310;18.780;2023-08-06T15:00:21;97203.28;;;15.45;100.00
71903;BME280;59778;50.310;18.780;2023-08-06T15:15:42;97195.25;;;15.70;100.00
71903;BME280;59778;50.310;18.780;2023-08-06T15:31:03;97192.06;;;15.41;100.00
71903;BME280;59778;50.310;18.780;2023-08-06T15:46:29;97206.75;;;15.30;100.00
71903;BME280;59778;50.310;18.780;2023-08-06T16:01:51;97249.50;;;15.36;100.00
71903;BME280;59778;50.310;18.780;2023-08-06T16:17:13;97280.63;;;15.30;100.00
71903;BME280;59778;50.310;18.780;2023-08-06T16:32:34;97308.28;;;15.34;100.00
71903;BME280;59778;50.310;18.780;2023-08-06T16:47:59;97324.34;;;15.25;100.00
71903;BME280;59778;50.310;18.780;2023-08-06T17:03:20;97346.44;;;15.19;100.00
71903;BME280;59778;50.310;18.780;2023-08-06T17:18:41;97361.78;;;15.20;100.00
71903;BME280;59778;50.310;18.780;2023-08-06T17:34:03;97374.56;;;15.14;100.00
71903;BME280;59778;50.310;18.780;2023-08-06T17:49:24;97367.44;;;15.13;100.00
71903;BME280;59778;50.310;18.780;2023-08-06T18:04:48;97383.34;;;15.16;100.00
71903;BME280;59778;50.310;18.780;2023-08-06T18:20:10;51230.28;;;-142.93;83.64
71903;BME280;59778;50.310;18.780;2023-08-06T18:35:32;51222.03;;;-142.93;83.36
71903;BME280;59778;50.310;18.780;2023-08-06T18:50:53;51219.97;;;-142.93;83.69
71903;BME280;59778;50.310;18.780;2023-08-06T19:06:16;51228.22;;;-142.93;83.62
71903;BME280;59778;50.310;18.780;2023-08-06T19:21:38;51228.22;;;-142.93;84.61
71903;BME280;59778;50.310;18.780;2023-08-06T19:37:01;51209.66;;;-142.93;86.79
71903;BME280;59778;50.310;18.780;2023-08-06T19:52:23;51197.25;;;-142.93;87.02
71903;BME280;59778;50.310;18.780;2023-08-06T20:08:10;51213.78;;;-142.93;87.20
71903;BME280;59778;50.310;18.780;2023-08-06T20:23:33;51209.66;;;-142.93;88.09
71903;BME280;59778;50.310;18.780;2023-08-06T20:39:00;51222.03;;;-142.93;87.79
71903;BME280;59778;50.310;18.780;2023-08-06T20:54:22;51257.16;;;-142.93;86.91
71903;BME280;59778;50.310;18.780;2023-08-06T21:09:43;51195.19;;;-142.93;86.27
71903;BME280;59778;50.310;18.780;2023-08-06T21:25:06;51255.09;;;-142.93;87.20
71903;BME280;59778;50.310;18.780;2023-08-06T21:40:27;51244.75;;;-142.93;89.61
71903;BME280;59778;50.310;18.780;2023-08-06T21:55:49;51215.84;;;-142.93;90.38
71903;BME280;59778;50.310;18.780;2023-08-06T22:11:10;51193.13;;;-142.93;89.81
71903;BME280;59778;50.310;18.780;2023-08-06T22:26:40;51236.50;;;-142.93;88.74
71903;BME280;59778;50.310;18.780;2023-08-06T22:42:01;51215.84;;;-142.93;88.89
71903;BME280;59778;50.310;18.780;2023-08-06T22:57:23;51240.63;;;-142.93;89.67
71903;BME280;59778;50.310;18.780;2023-08-06T23:12:44;51253.03;;;-142.93;88.59
71903;BME280;59778;50.310;18.780;2023-08-06T23:28:05;51244.75;;;-142.93;89.30
71903;BME280;59778;50.310;18.780;2023-08-06T23:43:26;51246.81;;;-142.93;91.19
71903;BME280;59778;50.310;18.780;2023-08-06T23:58:47;51224.09;;;-142.93;91.16
